Portada
METAR-TAF:

METAR-TAF

Aeropuertos :

Caracas, Venezuela

Aeropuerto Internacional de Maiquetía Simón Bolívar

latitud: 10-36N, longitud: 066-59W, altitud: 43 m

Observación

El informe se hizo hace 24 minutos, a las 00:00 UTC
Temperatura 27°C
Humedad 84%
Presión 1007 hPa
Visibilidad 10 km o más
Nubes dispersas a una altura de 1600 ft

METAR: SVMI 200000Z /////KT 9999 SCT016 27/24 Q1007

Hora: 20:24 (00:24 UTC)

Pronóstico

El informe se hizo hace 2 horas y 24 minutos, a las 22:00 UTC
Pronóstico válido del 20 a las 00 UTC al 21 a las 00 UTC
Viento 6 kt del este
Visibilidad 10 km o más
Nubes dispersas a una altura de 1600 ft
Evolucionando progresivamente
del 20 a las 00 UTC al 20 a las 04 UTC
Viento 5 kt del noreste
Cielo nuboso a una altura de 2000 ft

TAF: SVMI 192200Z 2000/2100 09006KT 9999 SCT016 TX34/19Z TN24/08Z BECMG 2000/2004 05005KT BKN020

Observaciones y pronósticos meteorológicos de más de 4000 aeropuertos (mensajes METAR y TAF).

Los puntos amarillos y rojos representan las estaciones disponibles.

Ponga el ratón en el punto deseado para ver el nombre de la estación.

Haga clic para ver las observaciones y los pronósticos meteorológicos.

Para cambiar el mapa : haga clic en los botones verdes con una cruz de color negro para hacer un zoom, en el botón verde con un guión para alejar o en las flechas verdes para mapas adyacentes.


METAR-TAF: